Time;durP1;ratioP1;P1;durP2;ratioP2;P2;SDS_P1;SDS_P2;PMS_P1;PMS_P2;Temp;Humidity;BMP_temperature;BMP_pressure;BME280_temperature;BME280_humidity;BME280_pressure;Samples;Min_cycle;Max_cycle;Signal;HPM_P1;HPM_P2
2021/01/02 00:01:59;;;;;;;47.00;29.92;;;3.30;23.80;;;;;;5018631;28;20187;-64
2021/01/02 00:04:37;;;;;;;50.13;30.48;;;3.40;22.50;;;;;;5009606;28;20211;-64
2021/01/02 00:07:15;;;;;;;44.83;30.45;;;3.40;22.10;;;;;;5038361;28;20183;-63
2021/01/02 00:09:43;;;;;;;48.38;30.20;;;3.40;18.10;;;;;;5011337;28;20218;-64
2021/01/02 00:12:15;;;;;;;48.38;29.67;;;3.30;18.50;;;;;;5012351;28;20202;-63
2021/01/02 00:15:03;;;;;;;45.67;29.60;;;3.30;20.70;;;;;;5029487;28;20695;-64
2021/01/02 00:17:42;;;;;;;49.13;28.60;;;3.30;20.60;;;;;;5015350;28;20178;-63
2021/01/02 00:20:24;;;;;;;43.53;28.90;;;3.30;21.00;;;;;;5022932;28;20196;-63
2021/01/02 00:22:54;;;;;;;47.85;31.15;;;3.30;22.50;;;;;;5026100;28;20233;-63
2021/01/02 00:25:27;;;;;;;46.88;30.45;;;3.30;23.00;;;;;;5028718;28;20214;-63
2021/01/02 00:28:19;;;;;;;52.90;30.17;;;3.30;26.20;;;;;;5028782;28;20197;-63
2021/01/02 00:30:59;;;;;;;45.88;29.45;;;3.30;24.20;;;;;;5013594;28;20190;-63
2021/01/02 00:33:33;;;;;;;53.97;31.30;;;3.30;27.30;;;;;;5015116;28;20699;-63
2021/01/02 00:36:10;;;;;;;45.38;28.88;;;3.30;25.30;;;;;;5025900;28;20202;-63
2021/01/02 00:38:38;;;;;;;43.28;27.88;;;3.30;28.10;;;;;;5023429;28;20206;-63
2021/01/02 00:41:07;;;;;;;48.28;30.75;;;3.30;26.40;;;;;;5024036;28;20223;-63
2021/01/02 00:43:36;;;;;;;53.90;29.63;;;3.30;26.40;;;;;;5017103;28;20560;-63
2021/01/02 00:46:01;;;;;;;43.58;27.95;;;3.30;25.00;;;;;;5016904;28;20190;-63
2021/01/02 00:48:27;;;;;;;41.63;27.63;;;3.40;24.70;;;;;;5028054;28;20182;-64
2021/01/02 00:50:56;;;;;;;41.87;26.67;;;3.40;26.30;;;;;;5020270;28;20186;-63
2021/01/02 00:53:30;;;;;;;46.85;30.45;;;3.50;24.30;;;;;;5029392;28;20835;-63
2021/01/02 00:56:19;;;;;;;43.50;27.27;;;3.50;20.20;;;;;;5026665;28;20205;-62
2021/01/02 00:59:08;;;;;;;43.90;28.75;;;3.50;21.10;;;;;;5015887;28;20668;-64
2021/01/02 01:01:45;;;;;;;42.03;27.83;;;3.50;16.40;;;;;;5026753;28;20179;-64
2021/01/02 01:04:22;;;;;;;41.50;27.17;;;3.60;18.30;;;;;;5026911;28;20204;-64
2021/01/02 01:06:54;;;;;;;39.67;26.00;;;3.60;17.10;;;;;;5025401;28;20170;-64
2021/01/02 01:09:23;;;;;;;42.08;27.50;;;3.60;11.70;;;;;;5016398;28;20170;-63
2021/01/02 01:11:54;;;;;;;41.20;26.77;;;3.60;16.90;;;;;;5019306;28;20213;-63
2021/01/02 01:14:20;;;;;;;42.30;26.67;;;3.70;15.30;;;;;;5021514;28;20922;-64
2021/01/02 01:16:54;;;;;;;44.28;26.52;;;3.70;11.10;;;;;;5019741;28;20592;-64
2021/01/02 01:19:27;;;;;;;43.28;26.65;;;3.70;10.40;;;;;;5025289;28;20190;-64
2021/01/02 01:21:57;;;;;;;40.08;26.77;;;3.70;6.10;;;;;;5020046;28;20187;-64
2021/01/02 01:24:43;;;;;;;39.20;27.02;;;3.70;7.00;;;;;;5014703;28;20236;-64
2021/01/02 01:27:20;;;;;;;39.72;26.08;;;3.70;1.00;;;;;;5029332;28;20182;-63
2021/01/02 01:29:48;;;;;;;40.00;28.02;;;3.70;4.40;;;;;;5027850;28;20302;-64
2021/01/02 01:32:22;;;;;;;39.65;27.10;;;3.70;1.00;;;;;;5020645;28;20183;-64
2021/01/02 01:34:53;;;;;;;42.05;26.15;;;3.70;1.00;;;;;;5015982;28;20194;-64
2021/01/02 01:37:24;;;;;;;41.70;27.98;;;3.70;1.00;;;;;;5023371;28;20186;-63
2021/01/02 01:39:52;;;;;;;41.40;25.08;;;3.70;1.00;;;;;;5010723;28;20227;-63
2021/01/02 01:42:20;;;;;;;45.13;26.80;;;3.70;1.00;;;;;;5011390;28;20194;-64
2021/01/02 01:45:06;;;;;;;41.22;28.08;;;3.70;1.00;;;;;;5009913;28;20425;-63
2021/01/02 01:47:36;;;;;;;40.75;27.60;;;3.70;1.00;;;;;;5008308;28;20210;-63
2021/01/02 01:50:21;;;;;;;41.92;27.00;;;3.70;1.00;;;;;;5012060;28;20991;-64
2021/01/02 01:52:50;;;;;;;41.90;27.33;;;3.70;1.00;;;;;;5009317;28;20950;-64
2021/01/02 01:55:26;;;;;;;37.88;26.30;;;3.70;1.00;;;;;;5024596;28;20784;-63
2021/01/02 01:58:07;;;;;;;42.03;27.25;;;3.60;1.00;;;;;;5026858;28;20273;-63
2021/01/02 02:00:45;;;;;;;43.97;29.42;;;3.60;1.00;;;;;;5026334;28;20896;-63
2021/01/02 02:03:26;;;;;;;43.47;27.10;;;3.70;1.00;;;;;;5018338;28;20198;-63
2021/01/02 02:06:01;;;;;;;42.05;28.75;;;3.70;1.00;;;;;;5011637;28;20174;-63
2021/01/02 02:08:44;;;;;;;45.10;29.80;;;3.70;1.00;;;;;;5009919;28;20266;-63
2021/01/02 02:11:33;;;;;;;44.05;28.65;;;3.70;1.00;;;;;;5020703;28;20700;-63
2021/01/02 02:14:31;;;;;;;41.03;26.95;;;3.60;1.00;;;;;;5009963;28;20183;-63
2021/01/02 02:17:04;;;;;;;40.08;26.63;;;3.70;1.00;;;;;;5023286;28;20194;-63
2021/01/02 02:19:55;;;;;;;47.08;27.95;;;3.70;1.00;;;;;;5020980;28;20312;-63
2021/01/02 02:22:35;;;;;;;42.03;27.80;;;3.60;1.00;;;;;;5025007;28;20182;-63
2021/01/02 02:25:03;;;;;;;43.45;27.25;;;3.60;1.00;;;;;;5022575;28;20596;-64
2021/01/02 02:27:29;;;;;;;41.25;27.67;;;3.60;1.00;;;;;;5023787;28;20178;-64
2021/01/02 02:30:12;;;;;;;45.20;28.95;;;3.60;1.00;;;;;;5030120;28;20194;-63
2021/01/02 02:32:44;;;;;;;43.45;28.38;;;3.70;1.00;;;;;;5019703;28;20193;-64
2021/01/02 02:35:21;;;;;;;40.45;25.90;;;3.60;1.00;;;;;;5015056;28;20171;-63
2021/01/02 02:37:51;;;;;;;45.65;29.08;;;3.60;1.00;;;;;;5030642;28;20213;-64
2021/01/02 02:40:19;;;;;;;46.35;29.00;;;3.60;1.00;;;;;;5028507;28;20262;-64
2021/01/02 02:42:58;;;;;;;44.30;27.98;;;3.60;1.00;;;;;;5030608;28;20300;-63
2021/01/02 02:45:24;;;;;;;42.53;27.77;;;3.60;1.00;;;;;;5018751;28;20206;-64
2021/01/02 02:47:55;;;;;;;50.40;28.50;;;3.60;1.00;;;;;;5014405;28;20179;-64
2021/01/02 02:50:26;;;;;;;42.75;27.95;;;3.60;1.00;;;;;;5026329;28;20925;-64
2021/01/02 02:53:08;;;;;;;44.55;28.23;;;3.50;1.00;;;;;;5023194;28;20187;-64
2021/01/02 02:55:42;;;;;;;44.88;27.58;;;3.50;1.00;;;;;;5031512;28;20185;-64
2021/01/02 02:58:08;;;;;;;43.63;29.63;;;3.50;1.00;;;;;;5017748;28;20203;-64
2021/01/02 03:00:34;;;;;;;43.30;27.75;;;3.50;1.00;;;;;;5017392;28;20175;-65
2021/01/02 03:03:01;;;;;;;44.67;27.58;;;3.40;1.00;;;;;;5014898;28;20196;-64
2021/01/02 03:05:28;;;;;;;50.70;30.77;;;3.40;1.00;;;;;;5011751;28;20191;-63
2021/01/02 03:07:54;;;;;;;43.28;27.48;;;3.30;1.00;;;;;;5015402;28;20186;-64
2021/01/02 03:10:21;;;;;;;45.60;26.83;;;3.30;1.00;;;;;;5031356;28;20186;-64
2021/01/02 03:12:49;;;;;;;44.85;28.08;;;3.30;1.00;;;;;;5026161;28;20329;-63
2021/01/02 03:15:20;;;;;;;44.60;27.17;;;3.30;1.00;;;;;;5030762;28;20197;-64
2021/01/02 03:17:47;;;;;;;44.58;27.65;;;3.20;1.00;;;;;;5030389;28;20155;-63
2021/01/02 03:20:14;;;;;;;42.65;27.65;;;3.20;1.00;;;;;;5030127;28;20261;-63
2021/01/02 03:22:41;;;;;;;46.22;28.88;;;3.20;1.00;;;;;;5031602;28;20265;-66
2021/01/02 03:25:08;;;;;;;42.78;26.70;;;3.20;1.00;;;;;;5020355;28;20209;-64
2021/01/02 03:27:34;;;;;;;53.80;29.55;;;3.10;1.00;;;;;;5028241;28;20235;-64
2021/01/02 03:30:00;;;;;;;43.07;28.00;;;3.10;1.00;;;;;;5028959;28;20189;-64
2021/01/02 03:32:25;;;;;;;46.00;27.53;;;3.10;1.00;;;;;;5030345;28;20425;-64
2021/01/02 03:34:51;;;;;;;46.47;27.10;;;3.20;1.00;;;;;;5029778;28;20198;-63
2021/01/02 03:37:17;;;;;;;47.07;28.27;;;3.20;1.00;;;;;;5030461;28;20193;-65
2021/01/02 03:39:42;;;;;;;46.07;28.73;;;3.20;1.00;;;;;;5033002;28;20234;-65
2021/01/02 03:42:09;;;;;;;50.00;26.73;;;3.10;1.00;;;;;;5030210;28;20197;-64
2021/01/02 03:44:35;;;;;;;49.67;27.63;;;3.10;1.00;;;;;;5027244;28;20206;-65
2021/01/02 03:47:08;;;;;;;48.73;28.37;;;3.10;1.00;;;;;;5027574;28;20196;-64
2021/01/02 03:49:35;;;;;;;48.28;28.58;;;3.00;1.00;;;;;;5023416;28;20205;-64
2021/01/02 03:52:02;;;;;;;44.08;26.85;;;3.10;1.00;;;;;;5023479;28;20171;-63
2021/01/02 03:54:28;;;;;;;45.75;27.58;;;3.00;1.00;;;;;;5023723;28;20183;-64
2021/01/02 03:56:53;;;;;;;46.23;28.90;;;3.00;1.00;;;;;;5028099;28;20679;-64
2021/01/02 03:59:19;;;;;;;46.07;28.30;;;3.00;1.00;;;;;;5022510;28;20538;-64
2021/01/02 04:02:00;;;;;;;43.40;28.33;;;3.00;1.00;;;;;;5029011;28;20206;-64
2021/01/02 04:04:26;;;;;;;45.00;27.38;;;2.90;1.00;;;;;;5021591;28;20198;-64
2021/01/02 04:06:52;;;;;;;43.70;26.75;;;2.80;2.30;;;;;;5025277;28;20675;-64
2021/01/02 04:09:19;;;;;;;55.38;29.00;;;2.80;5.60;;;;;;5018286;28;20179;-63
2021/01/02 04:11:45;;;;;;;49.72;28.50;;;2.70;1.70;;;;;;5030298;28;20198;-64
2021/01/02 04:14:11;;;;;;;51.03;27.63;;;2.70;4.60;;;;;;5022412;28;20232;-64
2021/01/02 04:16:38;;;;;;;48.00;28.73;;;2.70;8.00;;;;;;5016088;28;20216;-64
2021/01/02 04:19:05;;;;;;;51.42;28.95;;;2.60;9.10;;;;;;5022060;28;20185;-66
2021/01/02 04:21:34;;;;;;;48.20;28.42;;;2.60;9.40;;;;;;5027633;28;20940;-63
2021/01/02 04:24:01;;;;;;;47.72;26.83;;;2.60;10.40;;;;;;5025424;28;20209;-63
2021/01/02 04:26:27;;;;;;;44.90;27.92;;;2.60;16.40;;;;;;5019898;28;20182;-63
2021/01/02 04:28:53;;;;;;;49.37;28.07;;;2.50;14.00;;;;;;5030144;28;20221;-63
2021/01/02 04:31:20;;;;;;;47.72;27.52;;;2.50;15.10;;;;;;5017702;28;20420;-63
2021/01/02 04:33:46;;;;;;;44.47;27.48;;;2.50;15.40;;;;;;5015290;28;20239;-63
2021/01/02 04:36:21;;;;;;;43.45;26.15;;;2.50;16.10;;;;;;5023202;28;20235;-63
2021/01/02 04:38:47;;;;;;;46.78;27.23;;;2.50;17.10;;;;;;5024668;28;20204;-63
2021/01/02 04:41:13;;;;;;;41.80;24.67;;;2.50;14.80;;;;;;5016566;28;20198;-63
2021/01/02 04:43:40;;;;;;;49.67;27.38;;;2.50;18.80;;;;;;5025387;28;20244;-63
2021/01/02 04:46:06;;;;;;;39.95;24.90;;;2.50;19.20;;;;;;5016774;28;20183;-63
2021/01/02 04:48:32;;;;;;;48.33;26.00;;;2.50;15.10;;;;;;5025264;28;20215;-63
2021/01/02 04:50:58;;;;;;;47.33;25.73;;;2.50;14.90;;;;;;5028636;28;20567;-63
2021/01/02 04:53:24;;;;;;;45.63;27.00;;;2.50;17.90;;;;;;5032956;28;20521;-63
2021/01/02 04:55:52;;;;;;;43.95;26.10;;;2.50;17.70;;;;;;5026787;28;20697;-63
2021/01/02 04:58:21;;;;;;;47.75;25.67;;;2.50;15.90;;;;;;5015759;28;20183;-63
2021/01/02 05:00:48;;;;;;;43.55;26.67;;;2.50;13.70;;;;;;5026049;28;20189;-64
2021/01/02 05:03:14;;;;;;;41.30;25.55;;;2.50;17.10;;;;;;5016475;28;20182;-63
2021/01/02 05:05:40;;;;;;;42.17;25.03;;;2.40;14.20;;;;;;5019904;28;20683;-64
2021/01/02 05:08:06;;;;;;;39.05;22.92;;;2.40;18.10;;;;;;5026802;28;20850;-64
2021/01/02 05:10:32;;;;;;;42.25;25.02;;;2.40;19.40;;;;;;5024194;28;20266;-64
2021/01/02 05:13:15;;;;;;;44.50;24.50;;;2.40;18.60;;;;;;5029269;28;20308;-64
2021/01/02 05:15:41;;;;;;;48.35;26.40;;;2.40;17.40;;;;;;5017219;28;20209;-64
2021/01/02 05:18:07;;;;;;;46.55;26.65;;;2.50;19.00;;;;;;5021055;28;20190;-64
2021/01/02 05:20:33;;;;;;;39.72;24.10;;;2.40;15.10;;;;;;5026763;28;20259;-65
2021/01/02 05:23:11;;;;;;;43.92;24.95;;;2.40;15.40;;;;;;5024006;28;20236;-64
2021/01/02 05:25:37;;;;;;;43.70;25.65;;;2.40;16.50;;;;;;5021144;28;20197;-64
2021/01/02 05:28:03;;;;;;;42.35;23.95;;;2.50;14.60;;;;;;5011927;28;20174;-64
2021/01/02 05:30:33;;;;;;;45.58;24.98;;;2.40;17.00;;;;;;5027226;28;20521;-64
2021/01/02 05:33:08;;;;;;;44.08;24.88;;;2.40;13.40;;;;;;5019509;28;20578;-63
2021/01/02 05:35:48;;;;;;;43.13;24.92;;;2.40;14.60;;;;;;5029199;28;20620;-63
2021/01/02 05:38:22;;;;;;;42.50;23.38;;;2.50;21.70;;;;;;5021922;28;20241;-63
2021/01/02 05:40:54;;;;;;;37.55;23.13;;;2.60;22.40;;;;;;5028294;28;20225;-63
2021/01/02 05:43:24;;;;;;;41.45;24.25;;;2.60;17.10;;;;;;5023539;28;20179;-63
2021/01/02 05:45:50;;;;;;;39.67;22.83;;;2.60;14.00;;;;;;5024392;28;20183;-63
2021/01/02 05:48:24;;;;;;;41.50;23.60;;;2.60;12.30;;;;;;5009850;28;20862;-63
2021/01/02 05:50:51;;;;;;;40.58;22.55;;;2.60;10.70;;;;;;5022850;28;20182;-63
2021/01/02 05:53:23;;;;;;;38.95;23.08;;;2.60;10.10;;;;;;5009112;28;20155;-63
2021/01/02 05:56:10;;;;;;;41.17;22.80;;;2.70;9.20;;;;;;5025736;28;20209;-63
2021/01/02 05:58:45;;;;;;;39.25;23.40;;;2.70;3.20;;;;;;5023427;28;20499;-63
2021/01/02 06:01:15;;;;;;;36.33;23.75;;;2.70;6.00;;;;;;5020363;28;20192;-63
2021/01/02 06:03:42;;;;;;;40.53;23.15;;;2.70;3.10;;;;;;5030111;28;20211;-65
2021/01/02 06:06:12;;;;;;;36.25;22.25;;;2.70;3.90;;;;;;5027336;28;20212;-63
2021/01/02 06:08:42;;;;;;;37.60;21.90;;;2.80;3.50;;;;;;5032507;28;20215;-63
2021/01/02 06:11:11;;;;;;;39.67;22.77;;;2.70;2.80;;;;;;5065027;28;20180;-64
2021/01/02 06:13:41;;;;;;;38.30;22.00;;;2.70;1.00;;;;;;5035627;28;20181;-63
2021/01/02 06:16:08;;;;;;;33.65;21.95;;;2.70;1.00;;;;;;5018819;28;20179;-64
2021/01/02 06:18:36;;;;;;;36.17;22.90;;;2.80;1.00;;;;;;5024599;28;20182;-64
2021/01/02 06:21:04;;;;;;;38.90;22.77;;;2.80;1.00;;;;;;5030919;28;20182;-64
2021/01/02 06:23:30;;;;;;;39.78;22.25;;;2.80;1.00;;;;;;5028056;28;20192;-63
2021/01/02 06:25:56;;;;;;;37.97;22.60;;;2.80;1.00;;;;;;5026634;28;20189;-64
2021/01/02 06:28:24;;;;;;;37.40;21.30;;;2.70;1.00;;;;;;5029851;28;20511;-64
2021/01/02 06:30:56;;;;;;;37.70;22.20;;;2.70;1.00;;;;;;5031814;28;20236;-65
2021/01/02 06:33:22;;;;;;;36.28;22.70;;;2.70;1.00;;;;;;5021019;28;20184;-64
2021/01/02 06:35:48;;;;;;;36.35;21.67;;;2.60;1.00;;;;;;5025917;28;20185;-64
2021/01/02 06:38:15;;;;;;;37.73;22.00;;;2.70;1.00;;;;;;5030974;28;20189;-64
2021/01/02 06:40:45;;;;;;;36.28;21.13;;;2.70;1.50;;;;;;5017746;28;20226;-65
2021/01/02 06:43:18;;;;;;;36.53;21.23;;;2.70;1.00;;;;;;5018813;28;20529;-65
2021/01/02 06:45:48;;;;;;;37.72;21.77;;;2.70;1.00;;;;;;5017894;28;20210;-64
2021/01/02 06:48:16;;;;;;;35.78;22.20;;;2.70;5.00;;;;;;5031945;28;20716;-64
2021/01/02 06:50:55;;;;;;;35.67;22.35;;;2.70;1.00;;;;;;5040005;28;20188;-64
2021/01/02 06:53:31;;;;;;;37.67;21.08;;;2.70;1.00;;;;;;5028288;28;20191;-64
2021/01/02 06:56:03;;;;;;;35.63;21.35;;;2.70;1.00;;;;;;5029577;28;20181;-64
2021/01/02 06:58:44;;;;;;;38.08;22.00;;;2.70;1.00;;;;;;5022343;28;20717;-64
2021/01/02 07:01:29;;;;;;;35.65;21.02;;;2.70;1.00;;;;;;5024947;28;20210;-64
2021/01/02 07:03:56;;;;;;;37.42;21.23;;;2.60;1.00;;;;;;5030313;28;20233;-63
2021/01/02 07:06:22;;;;;;;35.97;21.38;;;2.60;1.00;;;;;;5030886;28;20208;-64
2021/01/02 07:08:49;;;;;;;33.60;20.60;;;2.60;5.10;;;;;;5029768;28;20324;-65
2021/01/02 07:11:31;;;;;;;36.55;22.38;;;2.60;1.00;;;;;;5030095;28;20185;-64
2021/01/02 07:14:08;;;;;;;35.00;21.13;;;2.60;1.00;;;;;;5020914;28;20189;-63
2021/01/02 07:16:45;;;;;;;34.10;20.48;;;2.60;3.50;;;;;;5028522;28;20213;-63
2021/01/02 07:19:26;;;;;;;48.58;23.17;;;2.70;7.40;;;;;;5029434;28;20194;-64
2021/01/02 07:22:15;;;;;;;34.58;21.90;;;2.70;5.00;;;;;;5024772;28;20300;-64
2021/01/02 07:24:40;;;;;;;40.40;22.77;;;2.70;1.00;;;;;;5029477;28;20211;-63
2021/01/02 07:27:11;;;;;;;34.80;20.83;;;2.70;1.00;;;;;;5021805;28;20240;-63
2021/01/02 07:29:40;;;;;;;36.33;22.05;;;2.70;1.00;;;;;;5020297;28;20240;-63
2021/01/02 07:32:12;;;;;;;35.75;21.50;;;2.60;1.00;;;;;;5029232;28;20177;-63
2021/01/02 07:34:51;;;;;;;38.35;22.40;;;2.60;1.00;;;;;;5029798;28;20660;-64
2021/01/02 07:37:22;;;;;;;36.55;21.67;;;2.60;1.00;;;;;;5030350;28;20185;-63
2021/01/02 07:40:06;;;;;;;37.53;21.63;;;2.50;5.80;;;;;;5030177;28;20233;-64
2021/01/02 07:42:37;;;;;;;39.33;21.60;;;2.60;1.10;;;;;;5023902;28;20185;-63
2021/01/02 07:45:25;;;;;;;36.05;21.85;;;2.60;5.60;;;;;;5017271;28;20209;-61
2021/01/02 07:47:59;;;;;;;38.33;22.05;;;2.60;7.50;;;;;;5021600;28;20174;-61
2021/01/02 07:50:27;;;;;;;35.70;20.80;;;2.70;8.70;;;;;;5012194;28;20189;-59
2021/01/02 07:52:54;;;;;;;32.63;19.02;;;2.60;1.00;;;;;;5018286;28;20282;-60
2021/01/02 07:55:25;;;;;;;36.75;21.17;;;2.60;1.00;;;;;;5028992;28;20181;-60
2021/01/02 07:57:51;;;;;;;36.60;20.40;;;2.70;3.90;;;;;;5034396;28;20251;-60
2021/01/02 08:00:17;;;;;;;38.70;21.23;;;2.70;4.20;;;;;;5025793;28;20190;-61
2021/01/02 08:02:42;;;;;;;34.10;19.83;;;2.70;1.00;;;;;;5027996;28;20201;-60
2021/01/02 08:05:12;;;;;;;35.53;22.30;;;2.70;1.00;;;;;;5030300;28;20202;-61
2021/01/02 08:07:39;;;;;;;31.33;19.80;;;2.70;1.00;;;;;;5027266;28;20265;-61
2021/01/02 08:10:10;;;;;;;36.00;20.13;;;2.80;1.00;;;;;;5017170;28;20206;-61
2021/01/02 08:12:36;;;;;;;33.47;20.30;;;2.80;1.00;;;;;;5017411;28;20179;-61
2021/01/02 08:15:04;;;;;;;34.15;20.88;;;2.90;1.00;;;;;;5025678;28;20187;-61
2021/01/02 08:17:39;;;;;;;36.10;20.90;;;2.90;1.00;;;;;;5026154;28;20642;-61
2021/01/02 08:20:05;;;;;;;33.25;18.45;;;2.90;1.00;;;;;;5016682;28;20198;-60
2021/01/02 08:22:35;;;;;;;32.88;19.25;;;3.00;1.00;;;;;;5028602;28;20243;-61
2021/01/02 08:25:15;;;;;;;32.75;20.38;;;3.00;1.00;;;;;;5021554;28;20262;-61
2021/01/02 08:27:42;;;;;;;32.58;19.77;;;3.10;1.00;;;;;;5012052;28;20961;-60
2021/01/02 08:30:12;;;;;;;33.30;19.88;;;3.10;1.00;;;;;;5024303;28;20624;-60
2021/01/02 08:32:45;;;;;;;37.80;20.85;;;3.10;1.00;;;;;;5025588;28;20190;-61
2021/01/02 08:35:19;;;;;;;32.67;20.98;;;3.10;1.00;;;;;;5030185;28;20190;-60
2021/01/02 08:37:46;;;;;;;33.60;22.52;;;3.10;1.00;;;;;;5022800;28;20179;-60
2021/01/02 08:40:14;;;;;;;35.55;21.35;;;3.10;1.00;;;;;;5026000;28;20311;-61
2021/01/02 08:42:44;;;;;;;35.25;21.45;;;3.10;1.00;;;;;;5021794;28;20190;-61
2021/01/02 08:45:13;;;;;;;39.60;21.70;;;3.20;1.00;;;;;;5016276;28;20207;-61
2021/01/02 08:47:39;;;;;;;35.03;20.23;;;3.30;1.00;;;;;;5016650;28;20321;-60
2021/01/02 08:50:15;;;;;;;37.17;22.48;;;3.30;1.00;;;;;;5013619;28;20183;-61
2021/01/02 08:52:42;;;;;;;36.00;20.67;;;3.40;1.00;;;;;;5015510;28;20270;-60
2021/01/02 08:55:16;;;;;;;33.03;19.95;;;3.30;1.00;;;;;;5007976;28;20649;-61
2021/01/02 08:57:49;;;;;;;31.85;19.98;;;3.40;1.00;;;;;;5003705;28;20189;-63
2021/01/02 09:00:21;;;;;;;32.20;19.08;;;3.30;1.00;;;;;;5007856;28;20185;-61
2021/01/02 09:03:07;;;;;;;35.70;20.25;;;3.40;1.00;;;;;;5009255;28;20660;-61
2021/01/02 09:05:33;;;;;;;31.67;20.45;;;3.50;1.00;;;;;;5016421;28;20211;-61
2021/01/02 09:08:01;;;;;;;34.20;20.23;;;3.60;1.00;;;;;;5009929;28;20668;-61
2021/01/02 09:10:36;;;;;;;27.83;19.15;;;3.80;1.00;;;;;;5011975;28;20507;-60
2021/01/02 09:13:06;;;;;;;30.92;19.90;;;3.90;1.00;;;;;;5008383;28;20186;-61
2021/01/02 09:15:45;;;;;;;30.50;18.58;;;4.00;1.00;;;;;;5017263;28;20178;-60
2021/01/02 09:18:13;;;;;;;33.55;19.95;;;4.00;1.00;;;;;;5013219;28;20244;-60
2021/01/02 09:20:39;;;;;;;34.88;19.63;;;4.00;1.00;;;;;;5007144;28;20225;-60
2021/01/02 09:23:04;;;;;;;31.40;18.90;;;3.90;1.00;;;;;;5020082;28;20199;-59
2021/01/02 09:25:34;;;;;;;30.33;18.53;;;3.90;1.00;;;;;;5009227;28;20516;-60
2021/01/02 09:28:17;;;;;;;32.17;18.40;;;3.80;1.00;;;;;;4999515;28;20181;-61
2021/01/02 09:30:44;;;;;;;34.55;19.33;;;3.70;1.00;;;;;;5007262;28;20935;-61
2021/01/02 09:33:11;;;;;;;30.70;19.00;;;3.70;1.00;;;;;;5005535;28;20194;-63
2021/01/02 09:35:37;;;;;;;32.85;19.70;;;3.80;1.00;;;;;;5001924;28;20187;-61
2021/01/02 09:38:04;;;;;;;31.80;20.35;;;3.90;1.00;;;;;;5015988;28;20202;-61
2021/01/02 09:40:31;;;;;;;28.77;18.85;;;4.10;1.00;;;;;;5018341;28;20848;-61
2021/01/02 09:42:57;;;;;;;31.13;18.42;;;4.40;1.00;;;;;;5013493;28;20183;-61
2021/01/02 09:45:22;;;;;;;31.93;18.47;;;4.60;1.00;;;;;;5011479;28;20280;-61
2021/01/02 09:47:48;;;;;;;30.60;20.30;;;4.90;1.00;;;;;;5018409;28;20577;-60
2021/01/02 09:50:13;;;;;;;31.63;20.10;;;5.20;1.00;;;;;;5015264;28;20194;-61
2021/01/02 09:52:39;;;;;;;30.17;20.67;;;5.60;1.00;;;;;;5019008;28;20370;-61
2021/01/02 09:55:05;;;;;;;30.10;19.63;;;6.10;99.90;;;;;;5012245;28;20185;-61
2021/01/02 09:57:31;;;;;;;30.95;20.90;;;6.50;1.00;;;;;;5002467;28;20684;-60
2021/01/02 09:59:56;;;;;;;28.17;19.73;;;6.90;1.00;;;;;;5016554;28;20191;-60
2021/01/02 10:02:22;;;;;;;32.37;22.00;;;7.20;1.00;;;;;;5015246;28;20671;-61
2021/01/02 10:04:49;;;;;;;32.80;21.53;;;7.60;1.00;;;;;;5014048;28;20210;-60
2021/01/02 10:07:17;;;;;;;31.63;21.53;;;8.10;99.90;;;;;;5011391;28;20187;-61
2021/01/02 10:09:46;;;;;;;28.10;20.13;;;8.40;1.00;;;;;;5013409;28;20430;-61
2021/01/02 10:12:14;;;;;;;28.03;21.00;;;9.00;99.90;;;;;;5005063;28;20438;-64
2021/01/02 10:14:39;;;;;;;27.33;20.90;;;9.40;98.40;;;;;;5015356;28;20432;-60
2021/01/02 10:17:06;;;;;;;28.87;20.80;;;9.90;1.00;;;;;;5007432;28;20426;-61
2021/01/02 10:19:32;;;;;;;29.00;22.07;;;10.50;1.00;;;;;;5007374;28;20273;-61
2021/01/02 10:22:01;;;;;;;27.07;21.60;;;11.10;1.00;;;;;;5019570;28;20428;-61
2021/01/02 10:24:28;;;;;;;28.50;21.97;;;11.20;1.00;;;;;;5009817;28;20465;-63
2021/01/02 10:26:53;;;;;;;29.87;21.33;;;11.20;1.00;;;;;;5006044;28;20856;-62
2021/01/02 10:29:19;;;;;;;29.60;21.97;;;11.10;1.00;;;;;;5005422;28;20495;-62
2021/01/02 10:31:45;;;;;;;31.83;22.57;;;10.80;99.90;;;;;;5022332;28;20186;-61
2021/01/02 10:34:11;;;;;;;30.27;21.90;;;10.30;99.90;;;;;;5015113;28;20183;-61
2021/01/02 10:36:36;;;;;;;26.90;20.20;;;9.70;1.00;;;;;;5011290;28;20229;-55
2021/01/02 10:39:03;;;;;;;26.60;20.50;;;9.10;1.00;;;;;;5016198;28;20438;-56
2021/01/02 10:41:29;;;;;;;27.70;20.77;;;8.30;1.00;;;;;;5008331;28;20181;-56
2021/01/02 10:43:55;;;;;;;28.47;19.67;;;7.80;99.90;;;;;;5017940;28;20929;-57
2021/01/02 10:46:20;;;;;;;27.67;19.20;;;7.70;99.90;;;;;;5013567;28;20196;-55
2021/01/02 10:48:46;;;;;;;30.20;20.33;;;7.40;1.00;;;;;;5002178;28;20186;-55
2021/01/02 10:51:17;;;;;;;31.43;23.90;;;7.10;1.00;;;;;;5008572;28;20189;-58
2021/01/02 10:53:42;;;;;;;29.50;19.37;;;6.90;1.00;;;;;;5015280;28;20236;-61
2021/01/02 10:56:13;;;;;;;25.57;19.30;;;6.60;1.00;;;;;;5009574;28;20643;-59
2021/01/02 10:58:39;;;;;;;30.80;19.55;;;6.40;99.90;;;;;;5006448;28;20180;-60
2021/01/02 11:01:05;;;;;;;27.30;18.70;;;6.10;99.90;;;;;;5006213;28;20183;-60
2021/01/02 11:03:33;;;;;;;31.42;19.77;;;5.80;99.90;;;;;;5006682;28;20187;-59
2021/01/02 11:06:03;;;;;;;29.38;19.42;;;5.70;1.00;;;;;;5004313;28;20679;-56
2021/01/02 11:08:29;;;;;;;31.67;20.67;;;5.50;1.00;;;;;;5020976;28;20278;-57
2021/01/02 11:10:54;;;;;;;30.80;20.70;;;5.20;99.90;;;;;;5021217;28;20261;-56
2021/01/02 11:13:20;;;;;;;35.67;21.67;;;5.20;99.90;;;;;;5025977;28;20175;-56
2021/01/02 11:15:47;;;;;;;33.67;20.50;;;4.90;1.00;;;;;;5012208;28;20187;-57
2021/01/02 11:18:12;;;;;;;32.40;20.50;;;4.60;1.00;;;;;;5027495;28;20229;-58
2021/01/02 11:20:38;;;;;;;30.80;20.37;;;4.50;1.00;;;;;;5025262;28;20604;-55
2021/01/02 11:23:03;;;;;;;33.90;21.13;;;4.50;1.00;;;;;;5026628;28;20221;-59
2021/01/02 11:25:29;;;;;;;30.70;19.93;;;4.40;1.00;;;;;;5031228;28;20589;-58
2021/01/02 11:27:55;;;;;;;30.80;20.20;;;4.30;1.00;;;;;;5022044;28;20190;-57
2021/01/02 11:30:21;;;;;;;32.03;22.30;;;4.30;1.00;;;;;;5030948;28;20174;-55
2021/01/02 11:32:47;;;;;;;34.70;20.40;;;4.30;1.00;;;;;;5029658;28;20178;-55
2021/01/02 11:35:13;;;;;;;33.63;21.70;;;4.50;1.00;;;;;;5016322;28;21743;-56
2021/01/02 11:37:38;;;;;;;30.90;20.77;;;4.30;1.00;;;;;;5021440;28;20187;-55
2021/01/02 11:40:05;;;;;;;35.47;22.50;;;4.50;1.00;;;;;;5022689;28;20270;-59
2021/01/02 11:42:30;;;;;;;33.55;20.42;;;4.50;1.00;;;;;;5020540;28;20640;-56
2021/01/02 11:44:56;;;;;;;28.47;19.67;;;4.60;1.00;;;;;;5028036;28;20203;-56
2021/01/02 11:47:21;;;;;;;34.67;22.10;;;4.60;1.00;;;;;;5022983;28;20241;-56
2021/01/02 11:49:48;;;;;;;33.50;20.30;;;4.60;1.00;;;;;;5018440;28;20252;-55
2021/01/02 11:52:14;;;;;;;29.05;19.58;;;4.70;1.00;;;;;;5024138;28;21079;-54
2021/01/02 11:54:40;;;;;;;32.77;20.73;;;4.70;1.00;;;;;;5025699;28;20193;-57
2021/01/02 11:57:07;;;;;;;33.13;20.20;;;4.90;1.00;;;;;;5019489;28;20194;-56
2021/01/02 11:59:33;;;;;;;33.13;20.73;;;5.00;1.00;;;;;;5028536;28;20611;-57
2021/01/02 12:02:01;;;;;;;31.48;20.95;;;5.00;1.00;;;;;;5029121;28;20183;-52
2021/01/02 12:04:28;;;;;;;33.88;20.85;;;5.00;1.00;;;;;;5019682;28;20669;-54
2021/01/02 12:06:54;;;;;;;32.10;20.42;;;5.00;1.00;;;;;;5026318;28;20178;-57
2021/01/02 12:09:23;;;;;;;37.58;22.20;;;4.90;1.00;;;;;;5030019;28;20167;-55
2021/01/02 12:11:49;;;;;;;31.23;20.85;;;4.90;1.00;;;;;;5030195;28;20225;-56
2021/01/02 12:14:21;;;;;;;32.60;20.67;;;4.90;1.00;;;;;;5029774;28;20193;-56
2021/01/02 12:16:50;;;;;;;32.55;20.00;;;4.90;1.00;;;;;;5019042;28;20182;-58
2021/01/02 12:19:20;;;;;;;31.67;20.80;;;4.90;1.00;;;;;;5023146;28;20221;-57
2021/01/02 12:21:46;;;;;;;34.88;22.20;;;4.90;1.00;;;;;;5020155;28;20191;-58
2021/01/02 12:24:12;;;;;;;34.90;22.60;;;4.90;1.00;;;;;;5029627;28;20652;-56
2021/01/02 12:26:43;;;;;;;32.75;21.30;;;4.80;1.00;;;;;;5027317;28;20301;-54
2021/01/02 12:29:08;;;;;;;37.45;22.42;;;4.90;1.00;;;;;;5028212;28;20179;-57
2021/01/02 12:31:39;;;;;;;31.57;20.03;;;4.80;1.00;;;;;;5029919;28;20225;-57
2021/01/02 12:34:04;;;;;;;35.45;21.73;;;4.60;1.00;;;;;;5029630;28;20605;-53
2021/01/02 12:36:42;;;;;;;38.37;22.33;;;4.60;1.00;;;;;;5028618;28;20257;-55
2021/01/02 12:39:09;;;;;;;32.88;21.73;;;4.60;1.00;;;;;;5025851;28;20757;-56
2021/01/02 12:41:35;;;;;;;36.53;23.33;;;4.60;1.00;;;;;;5029107;28;20190;-55
2021/01/02 12:44:02;;;;;;;32.35;21.98;;;4.70;1.00;;;;;;5029995;28;20244;-58
2021/01/02 12:46:46;;;;;;;34.03;22.50;;;4.70;1.00;;;;;;5025842;28;20203;-54
2021/01/02 12:49:14;;;;;;;31.70;20.70;;;4.80;1.00;;;;;;5029949;28;20249;-54
2021/01/02 12:51:40;;;;;;;35.95;22.23;;;4.90;1.00;;;;;;5021879;28;20178;-60
2021/01/02 12:54:05;;;;;;;35.80;21.40;;;4.90;1.00;;;;;;5011023;28;20167;-54
2021/01/02 12:56:31;;;;;;;34.43;21.80;;;4.90;1.00;;;;;;5029531;28;20198;-57
2021/01/02 12:58:57;;;;;;;35.50;22.20;;;5.00;1.00;;;;;;5028870;28;20197;-58